createdAt,value
2018-07-31T00:01:41.700Z,97.50
2018-07-31T00:04:09.035Z,97.70
2018-07-31T00:09:06.381Z,97.50
2018-07-31T00:11:34.819Z,97.40
2018-07-31T00:16:29.588Z,97.70
2018-07-31T00:18:56.984Z,97.80
2018-07-31T00:21:24.352Z,97.90
2018-07-31T00:23:51.728Z,97.70
2018-07-31T00:26:19.098Z,97.40
2018-07-31T00:28:46.440Z,97.30
2018-07-31T00:31:13.771Z,97.70
2018-07-31T00:36:08.541Z,97.90
2018-07-31T00:38:35.920Z,98.00
2018-07-31T00:41:03.272Z,98.40
2018-07-31T00:43:30.634Z,98.60
2018-07-31T00:45:58.016Z,98.60
2018-07-31T00:48:25.364Z,98.70
2018-07-31T00:50:52.726Z,98.60
2018-07-31T00:53:20.106Z,98.80
2018-07-31T00:55:47.553Z,98.40
2018-07-31T00:58:15.209Z,98.00
2018-07-31T01:00:42.584Z,98.40
2018-07-31T01:03:10.022Z,98.60
2018-07-31T01:05:37.376Z,98.40
2018-07-31T01:08:04.734Z,98.60
2018-07-31T01:10:32.087Z,98.90
2018-07-31T01:12:59.508Z,99.10
2018-07-31T01:15:26.852Z,98.90
2018-07-31T01:17:54.228Z,99.20
2018-07-31T01:20:21.612Z,98.70
2018-07-31T01:22:48.980Z,98.70
2018-07-31T01:25:16.396Z,99.00
2018-07-31T01:27:43.874Z,99.00
2018-07-31T01:30:11.252Z,99.10
2018-07-31T01:32:38.604Z,99.10
2018-07-31T01:35:06.174Z,99.10
2018-07-31T01:37:33.523Z,99.20
2018-07-31T01:40:00.868Z,99.10
2018-07-31T01:44:55.472Z,99.10
2018-07-31T01:47:22.720Z,99.20
2018-07-31T01:49:50.068Z,99.50
2018-07-31T02:03:16.448Z,99.70
2018-07-31T02:05:43.820Z,99.80
2018-07-31T02:08:11.128Z,99.60
2018-07-31T02:10:38.869Z,99.70
2018-07-31T02:13:06.533Z,99.70
2018-07-31T02:15:33.845Z,99.40
2018-07-31T02:18:01.156Z,99.40
2018-07-31T02:20:28.468Z,99.80
2018-07-31T02:22:55.776Z,99.30
2018-07-31T02:25:23.084Z,99.30
2018-07-31T02:27:50.462Z,99.40
2018-07-31T02:30:22.321Z,99.50
2018-07-31T02:32:50.700Z,99.80
2018-07-31T02:35:18.139Z,99.90
2018-07-31T02:40:12.965Z,99.90
2018-07-31T02:42:40.277Z,99.90
2018-07-31T02:45:09.513Z,99.90
2018-07-31T02:47:36.835Z,99.90
2018-07-31T02:50:04.848Z,99.90
2018-07-31T02:52:32.153Z,99.90
2018-07-31T02:54:59.579Z,99.90
2018-07-31T02:57:26.930Z,99.90
2018-07-31T02:59:54.196Z,99.90
2018-07-31T03:02:21.516Z,99.90
2018-07-31T03:04:48.782Z,99.90
2018-07-31T03:07:16.041Z,99.90
2018-07-31T03:09:43.308Z,99.90
2018-07-31T03:12:10.566Z,99.90
2018-07-31T03:14:37.808Z,99.90
2018-07-31T03:17:05.140Z,99.90
2018-07-31T03:19:32.390Z,99.90
2018-07-31T03:24:26.992Z,99.90
2018-07-31T03:26:54.338Z,99.90
2018-07-31T03:29:23.950Z,99.90
2018-07-31T03:31:51.309Z,99.90
2018-07-31T03:34:18.623Z,99.90
2018-07-31T03:36:46.020Z,99.90
2018-07-31T03:41:40.625Z,99.90
2018-07-31T03:44:08.092Z,99.90
2018-07-31T03:46:35.373Z,99.90
2018-07-31T03:49:02.653Z,99.90
2018-07-31T03:53:57.192Z,99.90
2018-07-31T03:58:51.893Z,99.90
2018-07-31T04:01:19.129Z,99.90
2018-07-31T04:03:46.429Z,99.90
2018-07-31T04:06:13.807Z,99.90
2018-07-31T04:08:41.048Z,99.90
2018-07-31T04:11:08.472Z,99.90
2018-07-31T04:13:35.758Z,99.90
2018-07-31T04:16:03.036Z,99.90
2018-07-31T04:18:30.322Z,99.90
2018-07-31T04:20:57.591Z,99.90
2018-07-31T04:23:24.841Z,99.90
2018-07-31T04:25:52.158Z,99.90
2018-07-31T04:28:19.422Z,99.90
2018-07-31T04:30:46.674Z,99.90
2018-07-31T04:35:41.263Z,99.90
2018-07-31T04:38:10.689Z,99.90
2018-07-31T04:40:40.214Z,99.90
2018-07-31T04:43:07.644Z,99.90
2018-07-31T04:45:34.981Z,99.90
2018-07-31T04:48:02.328Z,99.90
2018-07-31T04:50:29.879Z,99.90
2018-07-31T04:52:57.129Z,99.90
2018-07-31T04:55:24.425Z,99.90
2018-07-31T04:57:52.187Z,99.90
2018-07-31T05:00:19.632Z,99.90
2018-07-31T05:02:46.892Z,98.60
2018-07-31T05:05:14.149Z,97.90
2018-07-31T05:07:41.408Z,97.20
2018-07-31T05:10:12.175Z,96.60
2018-07-31T05:12:41.478Z,95.80
2018-07-31T05:15:08.855Z,95.30
2018-07-31T05:17:37.167Z,95.60
2018-07-31T05:20:04.728Z,96.80
2018-07-31T05:22:32.393Z,97.40
2018-07-31T05:24:59.726Z,98.30
2018-07-31T05:29:54.409Z,98.70
2018-07-31T05:32:21.719Z,98.80
2018-07-31T05:37:16.731Z,99.80
2018-07-31T05:39:44.176Z,99.90
2018-07-31T05:42:11.454Z,99.90
2018-07-31T05:44:39.028Z,99.90
2018-07-31T05:47:06.338Z,99.90
2018-07-31T05:52:01.532Z,99.90
2018-07-31T05:54:28.832Z,99.90
2018-07-31T05:56:56.101Z,99.90
2018-07-31T05:59:23.452Z,99.90
2018-07-31T06:01:50.957Z,99.90
2018-07-31T06:06:45.463Z,99.90
2018-07-31T06:09:13.268Z,99.90
2018-07-31T06:14:08.341Z,99.90
2018-07-31T06:16:35.674Z,99.90
2018-07-31T06:21:30.230Z,99.90
2018-07-31T06:23:57.765Z,99.90
2018-07-31T06:28:52.582Z,99.90
2018-07-31T06:31:19.849Z,99.90
2018-07-31T06:33:47.289Z,99.90
2018-07-31T06:36:14.553Z,99.90
2018-07-31T06:38:41.806Z,99.90
2018-07-31T06:41:09.130Z,99.90
2018-07-31T06:43:36.425Z,99.90
2018-07-31T06:46:03.701Z,99.90
2018-07-31T06:48:30.973Z,99.90
2018-07-31T06:50:58.243Z,99.90
2018-07-31T06:53:25.500Z,99.90
2018-07-31T06:55:52.766Z,99.90
2018-07-31T06:58:20.149Z,99.90
2018-07-31T07:00:47.410Z,99.90
2018-07-31T07:03:14.649Z,99.90
2018-07-31T07:05:41.936Z,99.90
2018-07-31T07:08:09.208Z,99.90
2018-07-31T07:10:36.508Z,99.90
2018-07-31T07:13:03.797Z,99.90
2018-07-31T07:17:58.370Z,99.90
2018-07-31T07:20:25.686Z,99.90
2018-07-31T07:22:53.693Z,99.90
2018-07-31T07:25:20.994Z,99.90
2018-07-31T07:30:21.114Z,99.90
2018-07-31T07:32:48.397Z,99.90
2018-07-31T07:35:15.714Z,99.90
2018-07-31T07:37:43.338Z,99.90
2018-07-31T07:40:10.613Z,99.90
2018-07-31T07:42:37.889Z,99.90
2018-07-31T07:45:05.229Z,99.90
2018-07-31T07:47:33.221Z,99.90
2018-07-31T07:50:01.605Z,99.90
2018-07-31T07:52:28.938Z,99.90
2018-07-31T07:54:56.296Z,99.90
2018-07-31T07:57:23.573Z,99.90
2018-07-31T07:59:50.851Z,99.90
2018-07-31T08:02:18.238Z,99.90
2018-07-31T08:04:45.557Z,99.90
2018-07-31T08:07:12.860Z,99.90
2018-07-31T08:09:40.123Z,99.90
2018-07-31T08:14:34.685Z,99.90
2018-07-31T08:17:02.027Z,99.90
2018-07-31T08:19:30.092Z,99.90
2018-07-31T08:21:57.440Z,99.90
2018-07-31T08:24:24.692Z,99.90
2018-07-31T08:26:52.163Z,99.90
2018-07-31T08:29:19.434Z,99.90
2018-07-31T08:31:46.816Z,99.90
2018-07-31T08:34:14.244Z,99.90
2018-07-31T08:36:41.534Z,99.90
2018-07-31T08:39:09.592Z,99.90
2018-07-31T08:41:37.118Z,99.90
2018-07-31T08:44:04.581Z,99.90
2018-07-31T08:46:32.699Z,99.50
2018-07-31T08:49:01.012Z,98.90
2018-07-31T08:51:28.802Z,98.50
2018-07-31T08:53:56.087Z,98.60
2018-07-31T08:56:23.781Z,98.60
2018-07-31T09:01:18.592Z,98.60
2018-07-31T09:03:45.970Z,98.50
2018-07-31T09:06:13.491Z,98.60
2018-07-31T09:08:40.998Z,98.20
2018-07-31T09:11:08.289Z,97.40
2018-07-31T09:13:35.529Z,97.40
2018-07-31T09:16:02.860Z,98.00
2018-07-31T09:18:31.658Z,97.80
2018-07-31T09:20:58.867Z,98.00
2018-07-31T09:23:26.128Z,98.00
2018-07-31T09:25:58.685Z,97.80
2018-07-31T09:28:26.437Z,97.70
2018-07-31T09:35:53.919Z,97.00
2018-07-31T09:38:21.161Z,97.40
2018-07-31T09:40:48.566Z,97.00
2018-07-31T09:43:15.801Z,96.90
2018-07-31T09:45:43.030Z,96.50
2018-07-31T09:48:10.294Z,96.40
2018-07-31T09:50:37.831Z,95.10
2018-07-31T09:53:05.125Z,94.90
2018-07-31T09:58:00.546Z,94.60
2018-07-31T10:00:33.545Z,93.90
2018-07-31T10:03:00.986Z,93.90
2018-07-31T10:05:28.253Z,94.30
2018-07-31T10:07:55.904Z,94.30
2018-07-31T10:10:23.378Z,93.90
2018-07-31T10:12:50.631Z,93.30
2018-07-31T10:17:45.196Z,92.50
2018-07-31T10:20:12.742Z,92.90
2018-07-31T10:22:40.024Z,93.20
2018-07-31T10:25:07.590Z,93.20
2018-07-31T10:27:34.836Z,92.70
2018-07-31T10:30:02.116Z,92.70
2018-07-31T10:32:29.387Z,92.20
2018-07-31T10:34:56.621Z,92.50
2018-07-31T10:37:23.874Z,92.00
2018-07-31T10:39:51.085Z,92.00
2018-07-31T10:42:18.347Z,91.50
2018-07-31T10:44:45.584Z,91.20
2018-07-31T10:47:12.831Z,90.90
2018-07-31T10:49:40.069Z,90.80
2018-07-31T10:52:07.711Z,90.50
2018-07-31T10:54:34.969Z,90.90
2018-07-31T10:57:02.235Z,90.70
2018-07-31T10:59:29.438Z,90.40
2018-07-31T11:01:57.938Z,90.40
2018-07-31T11:04:25.238Z,90.30
2018-07-31T11:06:52.615Z,89.20
2018-07-31T11:11:47.188Z,88.90
2018-07-31T11:14:14.480Z,88.10
2018-07-31T11:16:41.724Z,88.00
2018-07-31T11:19:08.990Z,88.20
2018-07-31T11:21:36.310Z,87.30
2018-07-31T11:26:30.997Z,88.80
2018-07-31T11:28:58.390Z,87.40
2018-07-31T11:31:25.677Z,88.50
2018-07-31T11:36:20.269Z,84.90
2018-07-31T11:38:47.888Z,85.00
2018-07-31T11:43:42.448Z,86.20
2018-07-31T11:48:37.002Z,84.70
2018-07-31T11:51:05.163Z,85.40
2018-07-31T11:53:32.947Z,84.50
2018-07-31T11:56:00.206Z,85.60
2018-07-31T11:58:27.844Z,85.90
2018-07-31T12:00:55.103Z,85.60
2018-07-31T12:03:22.356Z,85.90
2018-07-31T12:05:49.972Z,86.50
2018-07-31T12:08:17.277Z,87.00
2018-07-31T12:10:44.569Z,86.30
2018-07-31T12:13:11.844Z,87.40
2018-07-31T12:15:39.181Z,87.90
2018-07-31T12:18:06.464Z,87.60
2018-07-31T12:20:33.795Z,87.90
2018-07-31T12:23:01.693Z,86.70
2018-07-31T12:25:29.104Z,84.60
2018-07-31T12:30:23.759Z,84.50
2018-07-31T12:32:51.095Z,87.40
2018-07-31T12:35:18.592Z,86.20
2018-07-31T12:37:45.937Z,87.90
2018-07-31T12:40:13.220Z,87.70
2018-07-31T12:42:40.554Z,88.30
2018-07-31T12:45:07.859Z,88.70
2018-07-31T12:47:35.179Z,89.30
2018-07-31T12:50:03.238Z,84.10
2018-07-31T12:52:30.498Z,83.40
2018-07-31T12:54:57.801Z,82.70
2018-07-31T12:57:25.446Z,83.90
2018-07-31T12:59:52.775Z,85.10
2018-07-31T13:02:20.037Z,87.20
2018-07-31T13:07:14.797Z,88.70
2018-07-31T13:09:42.138Z,88.60
2018-07-31T13:12:09.473Z,87.90
2018-07-31T13:14:36.776Z,87.00
2018-07-31T13:17:04.131Z,87.60
2018-07-31T13:19:31.411Z,87.40
2018-07-31T13:21:58.889Z,87.90
2018-07-31T13:24:26.392Z,87.00
2018-07-31T13:26:53.753Z,86.30
2018-07-31T13:29:21.045Z,85.80
2018-07-31T13:31:49.013Z,85.10
2018-07-31T13:34:16.357Z,84.80
2018-07-31T13:36:43.684Z,84.80
2018-07-31T13:39:10.972Z,86.30
2018-07-31T13:41:38.285Z,86.40
2018-07-31T13:44:05.917Z,86.20
2018-07-31T13:46:33.096Z,85.90
2018-07-31T13:49:02.066Z,86.30
2018-07-31T13:51:29.405Z,86.80
2018-07-31T13:53:56.706Z,84.40
2018-07-31T13:58:51.676Z,83.50
2018-07-31T14:01:18.957Z,83.50
2018-07-31T14:03:46.271Z,83.40
2018-07-31T14:06:13.577Z,83.80
2018-07-31T14:08:40.889Z,84.50
2018-07-31T14:11:08.191Z,83.90
2018-07-31T14:13:35.490Z,84.30
2018-07-31T14:16:02.892Z,84.00
2018-07-31T14:18:30.652Z,84.70
2018-07-31T14:20:58.900Z,86.00
2018-07-31T14:23:26.210Z,86.00
2018-07-31T14:25:53.620Z,85.00
2018-07-31T14:28:20.896Z,86.90
2018-07-31T14:30:48.241Z,85.60
2018-07-31T14:33:16.061Z,84.60
2018-07-31T14:35:43.372Z,83.80
2018-07-31T14:40:38.077Z,84.50
2018-07-31T14:43:05.425Z,87.10
2018-07-31T14:45:32.780Z,86.80
2018-07-31T14:48:00.333Z,87.40
2018-07-31T14:50:27.656Z,88.80
2018-07-31T14:52:55.097Z,87.20
2018-07-31T14:55:22.546Z,86.20
2018-07-31T14:57:50.244Z,86.50
2018-07-31T15:00:17.533Z,86.50
2018-07-31T15:02:44.829Z,88.40
2018-07-31T15:05:13.556Z,88.90
2018-07-31T15:07:40.813Z,88.00
2018-07-31T15:10:08.313Z,87.10
2018-07-31T15:12:35.659Z,89.10
2018-07-31T15:15:03.021Z,89.10
2018-07-31T15:17:30.297Z,89.30
2018-07-31T15:19:57.643Z,89.60
2018-07-31T15:22:25.248Z,90.20
2018-07-31T15:24:52.530Z,89.50
2018-07-31T15:27:19.793Z,88.80
2018-07-31T15:29:47.058Z,87.30
2018-07-31T15:32:14.343Z,85.60
2018-07-31T15:34:41.585Z,85.10
2018-07-31T15:37:08.912Z,83.70
2018-07-31T15:39:36.174Z,83.60
2018-07-31T15:42:03.681Z,82.90
2018-07-31T15:44:31.181Z,83.00
2018-07-31T15:46:58.493Z,83.50
2018-07-31T15:49:25.759Z,83.70
2018-07-31T15:51:53.182Z,84.30
2018-07-31T15:54:20.455Z,85.40
2018-07-31T15:56:47.691Z,83.70
2018-07-31T15:59:15.069Z,82.90
2018-07-31T16:01:42.377Z,80.40
2018-07-31T16:04:09.650Z,80.60
2018-07-31T16:06:37.053Z,81.30
2018-07-31T16:09:06.888Z,81.90
2018-07-31T16:11:34.177Z,83.30
2018-07-31T16:14:01.493Z,83.90
2018-07-31T16:16:28.832Z,84.20
2018-07-31T16:23:50.843Z,82.60
2018-07-31T16:26:18.187Z,82.20
2018-07-31T16:28:45.452Z,82.20
2018-07-31T16:31:12.803Z,83.10
2018-07-31T16:33:40.055Z,82.40
2018-07-31T16:36:08.062Z,82.00
2018-07-31T16:38:35.305Z,81.90
2018-07-31T16:41:02.652Z,81.50
2018-07-31T16:43:29.968Z,81.70
2018-07-31T16:45:57.245Z,81.00
2018-07-31T16:53:19.120Z,81.60
2018-07-31T16:55:46.372Z,81.70
2018-07-31T16:58:13.655Z,82.10
2018-07-31T17:00:40.938Z,81.70
2018-07-31T17:03:08.292Z,82.00
2018-07-31T17:05:35.565Z,81.10
2018-07-31T17:08:02.824Z,81.30
2018-07-31T17:10:30.082Z,81.50
2018-07-31T17:12:57.354Z,81.60
2018-07-31T17:15:24.777Z,82.20
2018-07-31T17:17:52.124Z,82.10
2018-07-31T17:20:19.499Z,81.60
2018-07-31T17:22:46.764Z,81.20
2018-07-31T17:25:14.144Z,81.60
2018-07-31T17:27:41.457Z,81.60
2018-07-31T17:30:08.756Z,81.20
2018-07-31T17:32:36.122Z,81.70
2018-07-31T17:35:03.589Z,82.70
2018-07-31T17:37:31.065Z,83.00
2018-07-31T17:39:58.342Z,83.10
2018-07-31T17:42:25.705Z,83.40
2018-07-31T17:44:52.975Z,82.90
2018-07-31T17:47:20.275Z,83.50
2018-07-31T17:49:47.579Z,84.70
2018-07-31T17:52:14.905Z,84.00
2018-07-31T17:54:42.234Z,84.70
2018-07-31T17:57:09.575Z,83.40
2018-07-31T17:59:36.853Z,84.00
2018-07-31T18:04:31.811Z,84.00
2018-07-31T18:06:59.101Z,84.50
2018-07-31T18:09:26.444Z,84.70
2018-07-31T18:11:53.727Z,85.40
2018-07-31T18:14:21.086Z,85.80
2018-07-31T18:16:48.265Z,86.20
2018-07-31T18:19:15.569Z,86.30
2018-07-31T18:21:42.848Z,86.50
2018-07-31T18:24:10.181Z,86.80
2018-07-31T18:26:37.457Z,87.00
2018-07-31T18:29:04.777Z,86.90
2018-07-31T18:31:32.064Z,87.10
2018-07-31T18:33:59.346Z,87.30
2018-07-31T18:36:26.641Z,87.60
2018-07-31T18:38:53.898Z,88.00
2018-07-31T18:41:21.199Z,89.20
2018-07-31T18:43:48.472Z,88.40
2018-07-31T18:46:15.737Z,88.80
2018-07-31T18:48:43.089Z,89.10
2018-07-31T18:51:10.343Z,89.20
2018-07-31T19:03:26.990Z,90.30
2018-07-31T19:05:54.379Z,90.40
2018-07-31T19:08:21.668Z,90.80
2018-07-31T19:10:49.041Z,90.50
2018-07-31T19:13:17.743Z,90.80
2018-07-31T19:15:45.843Z,91.00
2018-07-31T19:18:13.157Z,91.20
2018-07-31T19:20:40.500Z,91.30
2018-07-31T19:23:08.209Z,91.20
2018-07-31T19:25:35.496Z,91.30
2018-07-31T19:28:02.941Z,91.40
2018-07-31T19:30:30.144Z,91.70
2018-07-31T19:32:57.548Z,91.80
2018-07-31T19:35:25.407Z,92.00
2018-07-31T19:37:52.827Z,92.60
2018-07-31T19:40:20.373Z,92.70
2018-07-31T19:42:47.693Z,92.50
2018-07-31T19:45:15.093Z,92.60
2018-07-31T19:47:42.437Z,92.60
2018-07-31T19:50:09.855Z,92.50
2018-07-31T19:52:37.233Z,92.80
2018-07-31T19:55:04.635Z,93.00
2018-07-31T19:57:31.969Z,93.40
2018-07-31T19:59:59.256Z,93.70
2018-07-31T20:02:26.548Z,93.70
2018-07-31T20:04:53.869Z,93.90
2018-07-31T20:07:21.173Z,94.00
2018-07-31T20:09:48.518Z,94.00
2018-07-31T20:12:15.767Z,94.10
2018-07-31T20:14:43.038Z,93.90
2018-07-31T20:17:10.312Z,94.50
2018-07-31T20:19:37.559Z,94.60
2018-07-31T20:22:04.902Z,94.70
2018-07-31T20:24:32.201Z,95.10
2018-07-31T20:26:59.529Z,94.90
2018-07-31T20:31:54.037Z,95.00
2018-07-31T20:34:21.409Z,95.10
2018-07-31T20:36:48.654Z,95.00
2018-07-31T20:39:15.913Z,94.70
2018-07-31T20:41:43.243Z,93.90
2018-07-31T20:44:10.503Z,94.40
2018-07-31T20:46:37.896Z,94.60
2018-07-31T20:49:05.197Z,94.90
2018-07-31T20:51:32.504Z,95.00
2018-07-31T20:53:59.767Z,94.80
2018-07-31T20:56:27.045Z,94.90
2018-07-31T20:58:54.373Z,95.40
2018-07-31T21:01:21.841Z,95.70
2018-07-31T21:03:49.222Z,95.60
2018-07-31T21:06:16.522Z,95.10
2018-07-31T21:08:45.333Z,95.40
2018-07-31T21:11:12.617Z,95.60
2018-07-31T21:13:39.912Z,95.60
2018-07-31T21:16:07.236Z,95.20
2018-07-31T21:18:34.616Z,95.50
2018-07-31T21:21:01.865Z,95.30
2018-07-31T21:23:29.190Z,95.30
2018-07-31T21:25:56.570Z,95.60
2018-07-31T21:28:25.137Z,95.60
2018-07-31T21:33:19.698Z,95.80
2018-07-31T21:35:47.029Z,95.80
2018-07-31T21:38:14.329Z,96.10
2018-07-31T21:40:41.942Z,96.70
2018-07-31T21:43:09.488Z,97.20
2018-07-31T21:45:36.771Z,96.80
2018-07-31T21:48:04.296Z,96.90
2018-07-31T21:50:31.616Z,97.00
2018-07-31T21:52:58.920Z,96.90
2018-07-31T21:57:53.507Z,97.00
2018-07-31T22:00:20.820Z,97.20
2018-07-31T22:07:42.731Z,97.20
2018-07-31T22:12:37.440Z,97.50
2018-07-31T22:15:04.813Z,97.50
2018-07-31T22:17:32.117Z,97.40
2018-07-31T22:19:59.384Z,97.90
2018-07-31T22:22:26.731Z,97.70
2018-07-31T22:24:54.144Z,97.70
2018-07-31T22:27:21.531Z,97.70
2018-07-31T22:29:48.810Z,97.70
2018-07-31T22:32:16.322Z,97.90
2018-07-31T22:34:43.636Z,98.20
2018-07-31T22:37:11.016Z,98.10
2018-07-31T22:39:38.420Z,98.20
2018-07-31T22:42:05.736Z,98.30
2018-07-31T22:44:33.024Z,98.60
2018-07-31T22:47:00.420Z,98.70
2018-07-31T22:49:27.809Z,98.80
2018-07-31T22:51:55.123Z,98.70
2018-07-31T22:54:22.435Z,98.60
2018-07-31T22:56:49.735Z,98.70
2018-07-31T22:59:17.100Z,98.80
2018-07-31T23:01:44.496Z,98.70
2018-07-31T23:04:11.791Z,98.90
2018-07-31T23:06:39.085Z,99.10
2018-07-31T23:09:07.689Z,98.80
2018-07-31T23:11:35.070Z,98.60
2018-07-31T23:14:02.433Z,98.60
2018-07-31T23:16:29.800Z,98.50
2018-07-31T23:18:57.105Z,98.90
2018-07-31T23:21:24.489Z,99.10
2018-07-31T23:23:51.760Z,98.90
2018-07-31T23:26:19.069Z,98.70
2018-07-31T23:28:46.390Z,98.50
2018-07-31T23:31:13.751Z,98.80
2018-07-31T23:33:41.030Z,99.00
2018-07-31T23:36:08.333Z,98.80
2018-07-31T23:38:35.628Z,98.80
2018-07-31T23:41:02.929Z,98.90
2018-07-31T23:43:30.219Z,98.70
2018-07-31T23:45:57.546Z,98.80
2018-07-31T23:48:24.919Z,98.90
2018-07-31T23:50:52.199Z,99.00
2018-07-31T23:53:19.475Z,98.80
2018-07-31T23:55:46.734Z,98.80
2018-07-31T23:58:14.046Z,98.90
